createdAt,value
2023-04-06T00:00:38.111Z,100.00
2023-04-06T00:03:04.956Z,100.00
2023-04-06T00:05:31.840Z,100.00
2023-04-06T00:07:59.307Z,100.00
2023-04-06T00:10:26.543Z,100.00
2023-04-06T00:12:54.766Z,100.00
2023-04-06T00:15:22.059Z,100.00
2023-04-06T00:17:48.835Z,100.00
2023-04-06T00:20:16.388Z,100.00
2023-04-06T00:22:43.420Z,100.00
2023-04-06T04:18:50.537Z,100.00
2023-04-06T04:21:17.290Z,100.00
2023-04-06T04:23:43.955Z,100.00
2023-04-06T04:26:11.165Z,100.00
2023-04-06T04:28:37.830Z,100.00
2023-04-06T04:31:04.588Z,100.00
2023-04-06T04:33:31.405Z,100.00
2023-04-06T04:35:58.238Z,100.00
2023-04-06T04:38:25.012Z,100.00
2023-04-06T04:40:51.726Z,100.00
2023-04-06T04:43:18.408Z,100.00
2023-04-06T04:45:45.517Z,100.00
2023-04-06T04:48:12.329Z,100.00
2023-04-06T04:50:39.167Z,100.00
2023-04-06T04:53:08.745Z,100.00
2023-04-06T04:55:35.468Z,100.00
2023-04-06T04:58:03.455Z,100.00
2023-04-06T05:00:30.436Z,100.00
2023-04-06T05:02:57.174Z,100.00
2023-04-06T05:05:23.902Z,100.00
2023-04-06T05:07:50.824Z,100.00
2023-04-06T05:10:17.620Z,100.00
2023-04-06T05:12:44.426Z,100.00
2023-04-06T05:15:11.742Z,100.00
2023-04-06T05:17:38.789Z,100.00
2023-04-06T05:20:06.865Z,100.00
2023-04-06T05:22:33.600Z,100.00
2023-04-06T05:25:00.275Z,100.00
2023-04-06T05:27:27.070Z,100.00
2023-04-06T05:29:55.034Z,100.00
2023-04-06T05:32:25.691Z,100.00
2023-04-06T05:34:54.959Z,100.00
2023-04-06T05:37:21.899Z,100.00
2023-04-06T05:39:48.693Z,100.00
2023-04-06T05:42:16.325Z,100.00
2023-04-06T05:44:43.183Z,100.00
2023-04-06T05:47:09.945Z,100.00
2023-04-06T05:49:36.676Z,100.00
2023-04-06T05:52:03.455Z,100.00
2023-04-06T05:54:30.187Z,100.00
2023-04-06T05:56:56.949Z,100.00
2023-04-06T05:59:24.808Z,100.00
2023-04-06T06:01:51.676Z,100.00
2023-04-06T06:04:18.410Z,100.00
2023-04-06T06:06:45.285Z,100.00
2023-04-06T06:09:11.988Z,100.00
2023-04-06T06:11:39.021Z,100.00
2023-04-06T06:14:05.953Z,100.00
2023-04-06T06:16:32.787Z,100.00
2023-04-06T06:18:59.494Z,100.00
2023-04-06T06:21:26.912Z,100.00
2023-04-06T06:23:55.048Z,100.00
2023-04-06T06:26:22.783Z,100.00
2023-04-06T06:28:49.738Z,100.00
2023-04-06T06:31:17.382Z,100.00
2023-04-06T06:33:44.140Z,100.00
2023-04-06T06:36:11.338Z,100.00
2023-04-06T06:38:39.222Z,100.00
2023-04-06T06:41:06.060Z,100.00
2023-04-06T06:43:32.955Z,100.00
2023-04-06T06:45:59.956Z,100.00
2023-04-06T06:48:26.985Z,100.00
2023-04-06T06:50:53.719Z,100.00
2023-04-06T06:53:21.239Z,100.00
2023-04-06T06:55:49.831Z,100.00
2023-04-06T06:58:18.867Z,100.00
2023-04-06T07:00:45.633Z,100.00
2023-04-06T07:03:12.776Z,100.00
2023-04-06T07:05:41.418Z,100.00
2023-04-06T07:08:08.240Z,100.00
2023-04-06T07:10:35.032Z,100.00
2023-04-06T07:13:01.756Z,100.00
2023-04-06T07:15:28.505Z,100.00
2023-04-06T07:17:55.888Z,100.00
2023-04-06T07:20:22.838Z,100.00
2023-04-06T07:22:49.604Z,100.00
2023-04-06T07:25:16.518Z,100.00
2023-04-06T07:27:43.359Z,100.00
2023-04-06T07:30:10.385Z,100.00
2023-04-06T07:32:37.307Z,100.00
2023-04-06T07:35:04.480Z,100.00
2023-04-06T07:37:31.352Z,100.00
2023-04-06T07:39:58.061Z,100.00
2023-04-06T07:42:24.786Z,100.00
2023-04-06T07:44:51.564Z,100.00
2023-04-06T07:47:18.219Z,100.00
2023-04-06T07:49:45.020Z,100.00
2023-04-06T07:52:11.692Z,100.00
2023-04-06T07:54:38.439Z,100.00
2023-04-06T07:57:05.503Z,100.00
2023-04-06T07:59:32.400Z,100.00
2023-04-06T08:01:59.183Z,100.00
2023-04-06T08:04:26.196Z,100.00
2023-04-06T08:06:52.919Z,100.00
2023-04-06T08:09:20.127Z,100.00
2023-04-06T08:11:48.824Z,100.00
2023-04-06T08:14:16.795Z,100.00
2023-04-06T08:16:43.509Z,100.00
2023-04-06T08:19:10.489Z,100.00
2023-04-06T08:21:37.295Z,100.00
2023-04-06T08:24:04.570Z,100.00
2023-04-06T08:26:31.534Z,100.00
2023-04-06T08:28:58.278Z,100.00
2023-04-06T08:31:25.446Z,100.00
2023-04-06T08:33:52.189Z,100.00
2023-04-06T08:36:23.654Z,100.00
2023-04-06T08:38:54.993Z,100.00
2023-04-06T08:41:21.948Z,100.00
2023-04-06T08:44:00.260Z,100.00
2023-04-06T08:46:31.008Z,100.00
2023-04-06T08:49:03.002Z,100.00
2023-04-06T08:51:31.566Z,100.00
2023-04-06T08:54:00.367Z,100.00
2023-04-06T08:56:29.199Z,100.00
2023-04-06T08:58:57.191Z,100.00
2023-04-06T09:01:27.332Z,100.00
2023-04-06T09:04:00.149Z,100.00
2023-04-06T09:06:28.412Z,100.00
2023-04-06T09:08:56.350Z,100.00
2023-04-06T09:11:23.415Z,100.00
2023-04-06T09:13:52.774Z,100.00
2023-04-06T09:16:20.910Z,100.00
2023-04-06T09:18:48.474Z,100.00
2023-04-06T09:21:19.478Z,100.00
2023-04-06T09:23:46.470Z,100.00
2023-04-06T09:26:15.818Z,100.00
2023-04-06T09:28:43.475Z,100.00
2023-04-06T09:31:12.973Z,100.00
2023-04-06T09:33:42.032Z,100.00
2023-04-06T09:36:12.101Z,100.00
2023-04-06T09:38:40.016Z,100.00
2023-04-06T09:41:06.810Z,100.00
2023-04-06T09:43:33.684Z,100.00
2023-04-06T09:46:01.564Z,100.00
2023-04-06T09:48:30.066Z,100.00
2023-04-06T09:51:01.097Z,100.00
2023-04-06T09:53:31.428Z,98.66
2023-04-06T09:56:03.898Z,96.16
2023-04-06T09:58:35.783Z,96.28
2023-04-06T10:01:16.639Z,92.61
2023-04-06T10:03:51.476Z,91.63
2023-04-06T10:06:23.645Z,91.10
2023-04-06T10:08:55.426Z,89.29
2023-04-06T10:11:22.663Z,87.67
2023-04-06T10:13:49.957Z,86.54
2023-04-06T10:16:17.842Z,86.15
2023-04-06T10:18:55.758Z,85.12
2023-04-06T10:21:26.770Z,84.34
2023-04-06T10:23:58.896Z,84.26
2023-04-06T10:26:25.955Z,82.59
2023-04-06T10:28:53.178Z,81.54
2023-04-06T10:31:28.423Z,81.19
2023-04-06T10:33:59.894Z,81.34
2023-04-06T10:36:33.323Z,81.80
2023-04-06T10:39:03.220Z,81.98
2023-04-06T10:41:47.210Z,81.62
2023-04-06T10:44:25.645Z,78.93
2023-04-06T10:47:04.133Z,78.46
2023-04-06T10:49:30.969Z,77.10
2023-04-06T10:51:58.253Z,78.69
2023-04-06T10:54:27.070Z,77.92
2023-04-06T10:56:53.944Z,78.72
2023-04-06T10:59:24.723Z,79.37
2023-04-06T11:01:51.971Z,78.56
2023-04-06T11:04:19.592Z,78.79
2023-04-06T11:06:51.318Z,79.53
2023-04-06T11:09:32.574Z,77.83
2023-04-06T11:11:59.724Z,79.99
2023-04-06T11:14:27.621Z,79.24
2023-04-06T11:16:54.798Z,77.33
2023-04-06T11:19:21.677Z,75.38
2023-04-06T11:21:50.104Z,75.71
2023-04-06T11:24:21.820Z,74.50
2023-04-06T11:26:52.033Z,75.23
2023-04-06T11:32:01.450Z,75.88
2023-04-06T11:34:31.583Z,75.05
2023-04-06T11:37:00.928Z,74.67
2023-04-06T11:39:29.350Z,74.98
2023-04-06T11:42:00.196Z,74.55
2023-04-06T11:44:32.144Z,74.96
2023-04-06T11:46:59.097Z,72.93
2023-04-06T11:49:33.808Z,72.83
2023-04-06T11:52:01.491Z,74.29
2023-04-06T11:54:35.349Z,72.71
2023-04-06T11:57:06.386Z,73.76
2023-04-06T11:59:33.956Z,72.05
2023-04-06T12:02:05.509Z,71.50
2023-04-06T12:04:32.601Z,72.02
2023-04-06T12:06:59.457Z,74.90
2023-04-06T12:09:26.360Z,72.83
2023-04-06T12:11:53.359Z,72.53
2023-04-06T12:14:21.709Z,69.34
2023-04-06T12:16:48.658Z,69.89
2023-04-06T12:19:15.529Z,71.99
2023-04-06T12:21:43.158Z,70.44
2023-04-06T12:24:10.101Z,69.79
2023-04-06T12:26:38.231Z,68.96
2023-04-06T12:29:08.273Z,69.32
2023-04-06T12:31:40.037Z,68.75
2023-04-06T12:34:07.602Z,70.99
2023-04-06T12:36:34.606Z,70.55
2023-04-06T12:39:02.017Z,70.10
2023-04-06T12:41:29.413Z,70.99
2023-04-06T12:43:56.699Z,67.77
2023-04-06T12:46:24.781Z,69.34
2023-04-06T12:48:54.610Z,68.98
2023-04-06T12:51:21.571Z,66.81
2023-04-06T12:53:48.785Z,67.01
2023-04-06T12:56:18.298Z,65.84
2023-04-06T12:58:48.425Z,67.68
2023-04-06T13:01:15.553Z,67.69
2023-04-06T13:03:42.590Z,67.21
2023-04-06T13:06:10.356Z,66.93
2023-04-06T13:08:39.202Z,67.48
2023-04-06T13:11:09.081Z,67.37
2023-04-06T13:13:36.367Z,67.53
2023-04-06T13:16:08.395Z,67.17
2023-04-06T13:18:35.751Z,66.34
2023-04-06T13:21:02.543Z,66.17
2023-04-06T13:23:29.471Z,66.46
2023-04-06T13:26:01.404Z,66.27
2023-04-06T13:28:28.607Z,64.25
2023-04-06T13:30:56.345Z,66.00
2023-04-06T13:33:23.431Z,66.65
2023-04-06T13:35:50.412Z,66.52
2023-04-06T13:38:17.425Z,65.84
2023-04-06T13:40:44.269Z,67.49
2023-04-06T13:43:11.757Z,66.29
2023-04-06T13:45:39.432Z,66.74
2023-04-06T13:48:06.622Z,66.05
2023-04-06T13:50:34.598Z,66.73
2023-04-06T13:53:01.323Z,66.04
2023-04-06T13:55:28.014Z,65.02
2023-04-06T13:57:56.094Z,65.06
2023-04-06T14:00:22.922Z,64.70
2023-04-06T14:02:49.769Z,65.31
2023-04-06T14:05:16.788Z,66.00
2023-04-06T14:07:43.517Z,66.02
2023-04-06T14:10:14.738Z,66.52
2023-04-06T14:12:45.707Z,66.57
2023-04-06T14:15:13.100Z,67.27
2023-04-06T14:17:39.840Z,67.72
2023-04-06T14:20:07.676Z,66.82
2023-04-06T14:22:34.734Z,66.26
2023-04-06T14:25:01.530Z,66.63
2023-04-06T14:27:28.314Z,67.04
2023-04-06T14:29:55.293Z,67.48
2023-04-06T14:32:22.735Z,67.61
2023-04-06T14:34:49.483Z,67.30
2023-04-06T14:37:16.236Z,65.87
2023-04-06T14:39:42.933Z,64.88
2023-04-06T14:42:09.753Z,66.39
2023-04-06T14:44:37.865Z,65.60
2023-04-06T14:47:06.295Z,64.96
2023-04-06T14:49:33.322Z,65.39
2023-04-06T14:52:01.170Z,65.48
2023-04-06T14:54:28.026Z,65.68
2023-04-06T14:56:55.904Z,65.28
2023-04-06T14:59:22.574Z,64.90
2023-04-06T15:01:49.315Z,65.86
2023-04-06T15:04:16.205Z,65.63
2023-04-06T15:06:43.010Z,65.03
2023-04-06T15:09:10.073Z,65.75
2023-04-06T15:11:36.770Z,64.88
2023-04-06T15:14:03.449Z,65.03
2023-04-06T15:16:33.731Z,64.60
2023-04-06T15:19:01.806Z,64.93
2023-04-06T15:21:28.530Z,65.73
2023-04-06T15:23:55.946Z,65.01
2023-04-06T15:26:22.674Z,64.88
2023-04-06T15:28:49.759Z,65.47
2023-04-06T15:31:33.024Z,66.20
2023-04-06T15:34:03.051Z,66.65
2023-04-06T15:36:30.888Z,66.29
2023-04-06T15:38:58.566Z,66.52
2023-04-06T15:41:26.960Z,66.05
2023-04-06T15:43:54.309Z,67.04
2023-04-06T15:46:22.010Z,67.63
2023-04-06T15:48:48.832Z,66.40
2023-04-06T15:51:17.676Z,65.58
2023-04-06T15:53:45.424Z,65.92
2023-04-06T15:56:14.338Z,65.58
2023-04-06T15:58:41.532Z,66.36
2023-04-06T16:01:16.255Z,66.46
2023-04-06T16:03:43.578Z,66.13
2023-04-06T16:06:11.167Z,66.10
2023-04-06T16:08:39.882Z,66.47
2023-04-06T16:11:06.898Z,66.76
2023-04-06T16:13:33.855Z,65.87
2023-04-06T16:16:01.112Z,66.18
2023-04-06T16:18:27.916Z,66.15
2023-04-06T16:20:54.623Z,66.34
2023-04-06T16:23:21.411Z,65.37
2023-04-06T16:25:48.196Z,65.33
2023-04-06T16:28:14.923Z,65.38
2023-04-06T16:30:43.671Z,65.43
2023-04-06T16:33:12.692Z,66.01
2023-04-06T16:35:46.831Z,66.58
2023-04-06T16:38:14.068Z,66.28
2023-04-06T16:40:41.014Z,66.09
2023-04-06T16:43:10.311Z,66.84
2023-04-06T16:45:38.189Z,66.66
2023-04-06T16:48:05.936Z,67.37
2023-04-06T16:50:33.446Z,67.09
2023-04-06T16:53:00.293Z,67.63
2023-04-06T16:55:26.939Z,67.94
2023-04-06T16:57:56.738Z,68.09
2023-04-06T17:00:23.718Z,67.87
2023-04-06T17:02:51.271Z,68.02
2023-04-06T17:05:24.445Z,67.72
2023-04-06T17:07:51.490Z,68.34
2023-04-06T17:10:23.935Z,69.18
2023-04-06T17:12:59.912Z,69.88
2023-04-06T17:15:28.540Z,70.36
2023-04-06T17:17:55.347Z,71.45
2023-04-06T17:20:22.480Z,71.28
2023-04-06T17:22:49.624Z,72.48
2023-04-06T17:25:16.820Z,73.18
2023-04-06T17:27:44.218Z,74.64
2023-04-06T17:30:12.272Z,76.68
2023-04-06T17:32:39.412Z,78.67
2023-04-06T17:35:06.524Z,80.22
2023-04-06T17:37:33.574Z,81.34
2023-04-06T17:40:00.479Z,82.44
2023-04-06T17:42:27.540Z,83.13
2023-04-06T17:44:54.218Z,83.63
2023-04-06T17:47:21.210Z,85.14
2023-04-06T17:49:49.086Z,86.73
2023-04-06T17:52:16.056Z,88.28
2023-04-06T17:54:43.073Z,90.27
2023-04-06T17:57:09.768Z,91.90
2023-04-06T17:59:36.493Z,98.51
2023-04-06T18:02:04.335Z,100.00
2023-04-06T18:04:31.295Z,100.00
2023-04-06T18:06:58.075Z,100.00
2023-04-06T18:11:52.142Z,100.00
2023-04-06T18:14:18.983Z,100.00
2023-04-06T18:16:45.928Z,100.00
2023-04-06T18:19:12.698Z,100.00
2023-04-06T18:21:39.376Z,100.00
2023-04-06T18:24:06.753Z,100.00
2023-04-06T18:26:34.468Z,100.00
2023-04-06T18:29:01.553Z,100.00
2023-04-06T18:31:28.280Z,100.00
2023-04-06T18:33:55.056Z,100.00
2023-04-06T18:36:21.856Z,100.00
2023-04-06T18:38:49.561Z,100.00
2023-04-06T18:41:18.048Z,100.00
2023-04-06T18:43:44.976Z,100.00
2023-04-06T18:46:17.146Z,100.00
2023-04-06T18:48:43.970Z,100.00
2023-04-06T18:51:10.901Z,100.00
2023-04-06T18:53:39.770Z,100.00
2023-04-06T18:56:14.866Z,100.00
2023-04-06T18:58:42.475Z,100.00
2023-04-06T19:01:09.276Z,100.00
2023-04-06T19:03:37.287Z,100.00
2023-04-06T19:06:09.990Z,100.00
2023-04-06T19:08:36.692Z,100.00
2023-04-06T19:11:08.013Z,100.00
2023-04-06T19:13:34.715Z,100.00
2023-04-06T19:16:02.055Z,100.00
2023-04-06T19:18:30.029Z,100.00
2023-04-06T19:20:56.886Z,100.00
2023-04-06T19:23:23.928Z,100.00
2023-04-06T19:25:52.713Z,100.00
2023-04-06T19:28:20.617Z,100.00
2023-04-06T19:30:47.441Z,100.00
2023-04-06T19:33:16.368Z,100.00
2023-04-06T19:35:43.198Z,100.00
2023-04-06T19:38:09.905Z,100.00
2023-04-06T19:40:36.587Z,100.00
2023-04-06T19:43:03.252Z,100.00
2023-04-06T19:45:29.958Z,100.00
2023-04-06T19:47:56.813Z,100.00
2023-04-06T19:50:23.524Z,100.00
2023-04-06T19:52:50.431Z,100.00
2023-04-06T19:55:17.189Z,100.00
2023-04-06T19:57:43.840Z,100.00
2023-04-06T20:00:11.027Z,100.00
2023-04-06T20:02:37.747Z,100.00
2023-04-06T20:05:04.767Z,100.00
2023-04-06T20:07:31.480Z,100.00
2023-04-06T20:09:58.427Z,100.00
2023-04-06T20:12:25.166Z,100.00
2023-04-06T20:14:51.911Z,100.00
2023-04-06T20:17:18.627Z,100.00
2023-04-06T20:19:45.229Z,100.00
2023-04-06T20:22:11.961Z,100.00
2023-04-06T20:24:38.661Z,100.00
2023-04-06T20:27:05.348Z,100.00
2023-04-06T20:29:32.161Z,100.00
2023-04-06T20:31:59.828Z,100.00
2023-04-06T20:34:28.985Z,100.00
2023-04-06T20:36:56.677Z,100.00
2023-04-06T20:39:24.268Z,100.00
2023-04-06T20:41:52.786Z,100.00
2023-04-06T20:44:21.282Z,100.00
2023-04-06T20:46:48.954Z,100.00
2023-04-06T20:49:15.781Z,100.00
2023-04-06T20:51:42.644Z,100.00
2023-04-06T20:54:09.375Z,100.00
2023-04-06T20:56:36.057Z,100.00
2023-04-06T20:59:05.133Z,100.00
2023-04-06T21:01:31.979Z,100.00
2023-04-06T21:03:59.673Z,100.00
2023-04-06T21:06:29.172Z,100.00
2023-04-06T21:08:56.010Z,100.00
2023-04-06T21:11:22.715Z,100.00
2023-04-06T21:13:49.428Z,100.00
2023-04-06T21:16:16.334Z,100.00
2023-04-06T21:18:43.105Z,100.00
2023-04-06T21:21:09.858Z,100.00
2023-04-06T21:23:36.629Z,100.00
2023-04-06T21:26:03.396Z,100.00
2023-04-06T21:28:30.094Z,100.00
2023-04-06T21:30:56.893Z,100.00
2023-04-06T21:33:23.730Z,100.00
2023-04-06T21:35:50.790Z,100.00
2023-04-06T21:38:17.766Z,100.00
2023-04-06T21:40:44.488Z,100.00
2023-04-06T21:43:11.551Z,100.00
2023-04-06T21:45:38.270Z,100.00
2023-04-06T21:48:05.507Z,100.00
2023-04-06T21:50:32.453Z,100.00
2023-04-06T21:52:59.161Z,100.00
2023-04-06T21:55:26.011Z,100.00
2023-04-06T21:57:52.657Z,100.00
2023-04-06T22:00:19.931Z,100.00
2023-04-06T22:02:49.260Z,100.00
2023-04-06T22:05:16.420Z,100.00
2023-04-06T22:07:45.905Z,100.00
2023-04-06T22:10:12.663Z,100.00
2023-04-06T22:12:39.398Z,100.00
2023-04-06T22:15:07.330Z,100.00
2023-04-06T22:17:34.131Z,100.00
2023-04-06T22:20:00.863Z,100.00
2023-04-06T22:22:27.597Z,100.00
2023-04-06T22:24:54.348Z,100.00
2023-04-06T22:27:21.427Z,100.00
2023-04-06T22:29:48.157Z,100.00
2023-04-06T22:32:14.931Z,100.00
2023-04-06T22:34:41.832Z,100.00
2023-04-06T22:37:08.530Z,100.00
2023-04-06T22:39:35.359Z,100.00
2023-04-06T22:42:02.373Z,100.00
2023-04-06T22:44:29.197Z,100.00
2023-04-06T22:46:55.965Z,100.00
2023-04-06T22:49:22.652Z,100.00
2023-04-06T22:51:49.363Z,100.00
2023-04-06T22:54:16.379Z,100.00
2023-04-06T22:56:43.084Z,100.00
2023-04-06T22:59:09.791Z,100.00
2023-04-06T23:01:36.639Z,100.00
2023-04-06T23:04:03.521Z,100.00
2023-04-06T23:06:30.303Z,100.00
2023-04-06T23:08:57.085Z,100.00
2023-04-06T23:11:23.814Z,100.00
2023-04-06T23:13:50.501Z,100.00
2023-04-06T23:16:17.228Z,100.00
2023-04-06T23:18:44.116Z,100.00
2023-04-06T23:21:10.957Z,100.00
2023-04-06T23:23:37.680Z,100.00
2023-04-06T23:26:04.556Z,100.00
2023-04-06T23:28:31.453Z,100.00
2023-04-06T23:30:58.146Z,100.00
2023-04-06T23:33:24.838Z,100.00
2023-04-06T23:35:55.553Z,100.00
2023-04-06T23:38:22.256Z,100.00
2023-04-06T23:40:49.030Z,100.00
2023-04-06T23:43:15.806Z,100.00
2023-04-06T23:45:43.181Z,100.00
2023-04-06T23:48:10.870Z,100.00
2023-04-06T23:50:38.034Z,100.00
2023-04-06T23:53:05.082Z,100.00
2023-04-06T23:55:31.754Z,100.00
2023-04-06T23:57:58.575Z,100.00
